sensor_id;sensor_type;location;lat;lon;timestamp;pressure;altitude;pressure_sealevel;temperature;humidity
64388;BME280;50709;52.648;4.764;2023-05-22T00:00:05;101692.91;;;18.66;61.71
64388;BME280;50709;52.648;4.764;2023-05-22T00:02:51;101679.59;;;18.71;61.42
64388;BME280;50709;52.648;4.764;2023-05-22T00:05:17;101690.09;;;18.74;61.63
64388;BME280;50709;52.648;4.764;2023-05-22T00:07:45;101683.84;;;18.78;61.51
64388;BME280;50709;52.648;4.764;2023-05-22T00:10:12;101670.91;;;18.64;61.71
64388;BME280;50709;52.648;4.764;2023-05-22T00:12:39;101686.47;;;18.81;61.48
64388;BME280;50709;52.648;4.764;2023-05-22T00:15:07;101682.16;;;18.74;61.68
64388;BME280;50709;52.648;4.764;2023-05-22T00:17:53;101682.16;;;18.74;61.75
64388;BME280;50709;52.648;4.764;2023-05-22T00:20:18;101676.88;;;18.74;61.46
64388;BME280;50709;52.648;4.764;2023-05-22T00:22:44;101670.78;;;18.69;61.74
64388;BME280;50709;52.648;4.764;2023-05-22T00:25:10;101672.78;;;18.58;62.07
64388;BME280;50709;52.648;4.764;2023-05-22T00:27:35;101680.50;;;18.69;61.95
64388;BME280;50709;52.648;4.764;2023-05-22T00:30:21;101684.34;;;18.52;62.62
64388;BME280;50709;52.648;4.764;2023-05-22T00:32:49;101673.78;;;18.51;62.47
64388;BME280;50709;52.648;4.764;2023-05-22T00:35:36;101689.53;;;18.57;62.29
64388;BME280;50709;52.648;4.764;2023-05-22T00:38:03;101718.56;;;18.07;64.24
64388;BME280;50709;52.648;4.764;2023-05-22T00:40:30;101697.53;;;18.01;64.66
64388;BME280;50709;52.648;4.764;2023-05-22T00:42:56;101696.03;;;18.39;63.33
64388;BME280;50709;52.648;4.764;2023-05-22T00:45:22;101684.56;;;18.40;63.30
64388;BME280;50709;52.648;4.764;2023-05-22T00:47:49;101666.00;;;18.43;62.39
64388;BME280;50709;52.648;4.764;2023-05-22T00:50:14;101664.78;;;18.61;61.93
64388;BME280;50709;52.648;4.764;2023-05-22T00:52:41;101681.66;;;18.54;62.58
64388;BME280;50709;52.648;4.764;2023-05-22T00:55:27;101686.47;;;18.30;63.73
64388;BME280;50709;52.648;4.764;2023-05-22T00:57:52;101691.19;;;18.11;64.35
64388;BME280;50709;52.648;4.764;2023-05-22T01:00:18;101670.31;;;18.47;62.99
64388;BME280;50709;52.648;4.764;2023-05-22T01:02:45;101657.06;;;18.48;62.40
64388;BME280;50709;52.648;4.764;2023-05-22T01:05:10;101676.03;;;18.22;63.47
64388;BME280;50709;52.648;4.764;2023-05-22T01:07:57;101680.03;;;18.46;62.91
64388;BME280;50709;52.648;4.764;2023-05-22T01:10:25;101671.06;;;18.55;62.55
64388;BME280;50709;52.648;4.764;2023-05-22T01:13:06;101651.91;;;18.41;62.74
64388;BME280;50709;52.648;4.764;2023-05-22T01:16:04;101661.72;;;18.34;63.49
64388;BME280;50709;52.648;4.764;2023-05-22T01:18:41;101625.91;;;18.16;63.34
64388;BME280;50709;52.648;4.764;2023-05-22T01:21:19;101639.78;;;18.29;63.38
64388;BME280;50709;52.648;4.764;2023-05-22T01:30:08;101602.09;;;18.16;63.62
64388;BME280;50709;52.648;4.764;2023-05-22T01:32:39;101608.94;;;18.29;63.33
64388;BME280;50709;52.648;4.764;2023-05-22T01:35:09;101617.63;;;18.36;63.32
64388;BME280;50709;52.648;4.764;2023-05-22T01:37:37;101612.78;;;18.11;63.97
64388;BME280;50709;52.648;4.764;2023-05-22T01:40:03;101627.66;;;18.17;64.11
64388;BME280;50709;52.648;4.764;2023-05-22T01:42:31;101628.59;;;18.13;64.40
64388;BME280;50709;52.648;4.764;2023-05-22T01:44:56;101606.56;;;18.12;64.10
64388;BME280;50709;52.648;4.764;2023-05-22T01:47:22;101612.94;;;17.99;65.02
64388;BME280;50709;52.648;4.764;2023-05-22T01:49:52;101601.88;;;17.75;65.22
64388;BME280;50709;52.648;4.764;2023-05-22T01:52:24;101593.72;;;17.89;64.79
64388;BME280;50709;52.648;4.764;2023-05-22T01:55:41;101599.78;;;17.97;64.45
64388;BME280;50709;52.648;4.764;2023-05-22T02:00:56;101596.09;;;18.08;64.09
64388;BME280;50709;52.648;4.764;2023-05-22T02:03:28;101598.75;;;18.06;64.15
64388;BME280;50709;52.648;4.764;2023-05-22T02:05:58;101584.81;;;17.98;64.40
64388;BME280;50709;52.648;4.764;2023-05-22T02:08:25;101581.19;;;18.04;64.19
64388;BME280;50709;52.648;4.764;2023-05-22T02:10:54;101553.19;;;17.90;63.76
64388;BME280;50709;52.648;4.764;2023-05-22T02:13:21;101571.28;;;18.15;63.54
64388;BME280;50709;52.648;4.764;2023-05-22T02:15:47;101574.53;;;18.31;63.14
64388;BME280;50709;52.648;4.764;2023-05-22T02:18:13;101575.91;;;18.04;63.75
64388;BME280;50709;52.648;4.764;2023-05-22T02:20:45;101534.44;;;18.06;62.99
64388;BME280;50709;52.648;4.764;2023-05-22T02:23:11;101568.91;;;17.99;63.71
64388;BME280;50709;52.648;4.764;2023-05-22T02:25:36;101562.91;;;17.88;64.43
64388;BME280;50709;52.648;4.764;2023-05-22T02:28:02;101575.03;;;18.02;64.38
64388;BME280;50709;52.648;4.764;2023-05-22T02:30:47;101561.44;;;18.25;63.44
64388;BME280;50709;52.648;4.764;2023-05-22T02:33:13;101562.78;;;17.97;64.08
64388;BME280;50709;52.648;4.764;2023-05-22T02:35:42;101554.78;;;18.02;63.85
64388;BME280;50709;52.648;4.764;2023-05-22T02:38:08;101556.28;;;18.17;63.56
64388;BME280;50709;52.648;4.764;2023-05-22T02:40:33;101545.88;;;18.08;63.55
64388;BME280;50709;52.648;4.764;2023-05-22T02:42:59;101545.13;;;17.99;63.86
64388;BME280;50709;52.648;4.764;2023-05-22T02:45:24;101542.59;;;17.93;64.16
64388;BME280;50709;52.648;4.764;2023-05-22T02:47:50;101533.75;;;17.94;64.05
64388;BME280;50709;52.648;4.764;2023-05-22T02:50:16;101541.72;;;17.93;64.13
64388;BME280;50709;52.648;4.764;2023-05-22T02:53:02;101526.09;;;17.79;64.55
64388;BME280;50709;52.648;4.764;2023-05-22T02:55:27;101543.69;;;17.78;64.19
64388;BME280;50709;52.648;4.764;2023-05-22T02:57:53;101541.03;;;17.81;64.25
64388;BME280;50709;52.648;4.764;2023-05-22T03:00:19;101526.31;;;17.63;64.48
64388;BME280;50709;52.648;4.764;2023-05-22T03:02:48;101549.81;;;17.82;64.19
64388;BME280;50709;52.648;4.764;2023-05-22T03:05:14;101565.38;;;18.01;63.73
64388;BME280;50709;52.648;4.764;2023-05-22T03:07:42;101545.19;;;17.95;63.81
64388;BME280;50709;52.648;4.764;2023-05-22T03:10:07;101543.84;;;17.69;64.67
64388;BME280;50709;52.648;4.764;2023-05-22T03:12:33;101552.75;;;17.63;65.05
64388;BME280;50709;52.648;4.764;2023-05-22T03:15:19;101531.16;;;17.35;65.37
64388;BME280;50709;52.648;4.764;2023-05-22T03:18:05;101560.16;;;17.40;65.72
64388;BME280;50709;52.648;4.764;2023-05-22T03:20:32;101545.69;;;17.62;65.03
64388;BME280;50709;52.648;4.764;2023-05-22T03:23:23;101564.97;;;17.69;64.80
64388;BME280;50709;52.648;4.764;2023-05-22T03:25:49;101567.59;;;17.69;64.87
64388;BME280;50709;52.648;4.764;2023-05-22T03:28:15;101521.84;;;17.69;64.18
64388;BME280;50709;52.648;4.764;2023-05-22T03:30:42;101543.84;;;17.69;64.71
64388;BME280;50709;52.648;4.764;2023-05-22T03:33:27;101548.44;;;17.58;64.93
64388;BME280;50709;52.648;4.764;2023-05-22T03:35:53;101543.97;;;17.60;65.42
64388;BME280;50709;52.648;4.764;2023-05-22T03:38:20;101546.69;;;17.57;65.54
64388;BME280;50709;52.648;4.764;2023-05-22T03:40:45;101549.44;;;17.51;65.57
64388;BME280;50709;52.648;4.764;2023-05-22T03:43:11;101539.94;;;17.39;65.96
64388;BME280;50709;52.648;4.764;2023-05-22T03:45:36;101545.84;;;17.55;65.48
64388;BME280;50709;52.648;4.764;2023-05-22T03:48:06;101543.34;;;17.45;65.56
64388;BME280;50709;52.648;4.764;2023-05-22T03:50:31;101547.94;;;17.31;66.32
64388;BME280;50709;52.648;4.764;2023-05-22T03:53:17;101554.78;;;17.44;65.96
64388;BME280;50709;52.648;4.764;2023-05-22T03:56:02;101530.94;;;17.49;65.50
64388;BME280;50709;52.648;4.764;2023-05-22T03:58:28;101549.47;;;17.47;65.73
64388;BME280;50709;52.648;4.764;2023-05-22T04:00:54;101537.09;;;17.51;65.52
64388;BME280;50709;52.648;4.764;2023-05-22T04:03:21;101546.03;;;17.44;65.75
64388;BME280;50709;52.648;4.764;2023-05-22T04:05:47;101550.31;;;17.49;65.79
64388;BME280;50709;52.648;4.764;2023-05-22T04:08:14;101563.59;;;17.43;66.12
64388;BME280;50709;52.648;4.764;2023-05-22T04:10:39;101545.94;;;17.48;65.84
64388;BME280;50709;52.648;4.764;2023-05-22T04:13:06;101553.66;;;17.61;65.67
64388;BME280;50709;52.648;4.764;2023-05-22T04:15:51;101548.28;;;17.67;65.21
64388;BME280;50709;52.648;4.764;2023-05-22T04:18:18;101539.63;;;17.59;65.57
64388;BME280;50709;52.648;4.764;2023-05-22T04:20:47;101540.41;;;17.65;65.41
64388;BME280;50709;52.648;4.764;2023-05-22T04:23:15;101546.44;;;17.72;65.22
64388;BME280;50709;52.648;4.764;2023-05-22T04:25:46;101545.53;;;17.75;65.25
64388;BME280;50709;52.648;4.764;2023-05-22T04:28:12;101551.78;;;17.68;65.79
64388;BME280;50709;52.648;4.764;2023-05-22T04:30:38;101512.50;;;17.47;65.68
64388;BME280;50709;52.648;4.764;2023-05-22T04:33:23;101548.13;;;17.78;65.30
64388;BME280;50709;52.648;4.764;2023-05-22T04:35:50;101552.72;;;17.65;65.80
64388;BME280;50709;52.648;4.764;2023-05-22T04:38:18;101563.28;;;17.65;66.14
64388;BME280;50709;52.648;4.764;2023-05-22T04:40:44;101567.59;;;17.72;66.42
64388;BME280;50709;52.648;4.764;2023-05-22T04:43:10;101574.50;;;17.79;65.86
64388;BME280;50709;52.648;4.764;2023-05-22T04:45:38;101579.88;;;17.73;65.97
64388;BME280;50709;52.648;4.764;2023-05-22T04:48:06;101564.00;;;17.76;65.99
64388;BME280;50709;52.648;4.764;2023-05-22T04:50:33;101578.00;;;17.81;66.05
64388;BME280;50709;52.648;4.764;2023-05-22T04:53:00;101571.13;;;17.71;66.28
64388;BME280;50709;52.648;4.764;2023-05-22T04:55:45;101575.38;;;17.81;66.04
64388;BME280;50709;52.648;4.764;2023-05-22T04:58:11;101577.06;;;17.84;65.93
64388;BME280;50709;52.648;4.764;2023-05-22T05:00:36;101583.22;;;17.85;66.24
64388;BME280;50709;52.648;4.764;2023-05-22T05:03:02;101587.34;;;18.03;65.71
64388;BME280;50709;52.648;4.764;2023-05-22T05:05:28;101592.75;;;17.96;65.96
64388;BME280;50709;52.648;4.764;2023-05-22T05:07:55;101592.69;;;17.99;65.95
64388;BME280;50709;52.648;4.764;2023-05-22T05:10:22;101598.00;;;17.99;66.08
64388;BME280;50709;52.648;4.764;2023-05-22T05:12:47;101604.78;;;18.14;65.48
64388;BME280;50709;52.648;4.764;2023-05-22T05:15:13;101606.53;;;18.15;65.74
64388;BME280;50709;52.648;4.764;2023-05-22T05:17:40;101619.56;;;18.26;65.57
64388;BME280;50709;52.648;4.764;2023-05-22T05:20:06;101586.78;;;18.35;64.10
64388;BME280;50709;52.648;4.764;2023-05-22T05:22:32;101616.53;;;18.48;64.49
64388;BME280;50709;52.648;4.764;2023-05-22T05:24:57;101621.66;;;18.56;64.62
64388;BME280;50709;52.648;4.764;2023-05-22T05:27:23;101603.97;;;18.59;64.33
64388;BME280;50709;52.648;4.764;2023-05-22T05:29:49;101619.81;;;18.61;64.63
64388;BME280;50709;52.648;4.764;2023-05-22T05:32:14;101611.75;;;18.67;64.18
64388;BME280;50709;52.648;4.764;2023-05-22T05:34:41;101600.44;;;18.60;64.33
64388;BME280;50709;52.648;4.764;2023-05-22T05:37:07;101604.72;;;18.66;63.73
64388;BME280;50709;52.648;4.764;2023-05-22T05:39:34;101624.09;;;18.68;64.49
64388;BME280;50709;52.648;4.764;2023-05-22T05:42:00;101586.66;;;18.43;64.62
64388;BME280;50709;52.648;4.764;2023-05-22T05:44:25;101608.31;;;18.62;64.57
64388;BME280;50709;52.648;4.764;2023-05-22T05:46:51;101615.97;;;18.77;63.89
64388;BME280;50709;52.648;4.764;2023-05-22T05:49:36;101624.69;;;18.82;64.66
64388;BME280;50709;52.648;4.764;2023-05-22T05:52:02;101612.19;;;18.92;64.25
64388;BME280;50709;52.648;4.764;2023-05-22T05:54:28;101607.75;;;18.93;64.58
64388;BME280;50709;52.648;4.764;2023-05-22T05:56:53;101603.97;;;19.05;64.22
64388;BME280;50709;52.648;4.764;2023-05-22T05:59:19;101605.53;;;19.13;64.00
64388;BME280;50709;52.648;4.764;2023-05-22T06:01:45;101572.44;;;18.94;63.56
64388;BME280;50709;52.648;4.764;2023-05-22T06:04:14;101609.56;;;19.33;63.96
64388;BME280;50709;52.648;4.764;2023-05-22T06:06:39;101587.59;;;19.28;63.22
64388;BME280;50709;52.648;4.764;2023-05-22T06:09:06;101591.63;;;19.44;63.62
64388;BME280;50709;52.648;4.764;2023-05-22T06:11:33;101570.56;;;19.40;63.74
64388;BME280;50709;52.648;4.764;2023-05-22T06:13:59;101601.81;;;19.63;63.97
64388;BME280;50709;52.648;4.764;2023-05-22T06:16:25;101605.28;;;19.65;63.25
64388;BME280;50709;52.648;4.764;2023-05-22T06:18:51;101599.66;;;19.79;62.75
64388;BME280;50709;52.648;4.764;2023-05-22T06:21:19;101605.69;;;19.48;64.48
64388;BME280;50709;52.648;4.764;2023-05-22T06:23:46;101593.13;;;19.56;63.88
64388;BME280;50709;52.648;4.764;2023-05-22T06:26:12;101594.56;;;19.70;62.75
64388;BME280;50709;52.648;4.764;2023-05-22T06:28:39;101598.91;;;19.74;63.45
64388;BME280;50709;52.648;4.764;2023-05-22T06:31:05;101606.41;;;19.94;62.71
64388;BME280;50709;52.648;4.764;2023-05-22T06:33:35;101612.22;;;20.08;61.31
64388;BME280;50709;52.648;4.764;2023-05-22T06:36:03;101607.25;;;19.94;61.98
64388;BME280;50709;52.648;4.764;2023-05-22T06:38:30;101630.47;;;19.85;64.27
64388;BME280;50709;52.648;4.764;2023-05-22T06:40:55;101629.06;;;19.68;63.68
64388;BME280;50709;52.648;4.764;2023-05-22T06:43:21;101635.59;;;19.53;64.45
64388;BME280;50709;52.648;4.764;2023-05-22T06:45:46;101625.66;;;19.63;62.45
64388;BME280;50709;52.648;4.764;2023-05-22T06:48:12;101643.59;;;19.91;62.24
64388;BME280;50709;52.648;4.764;2023-05-22T06:50:37;101636.91;;;19.73;63.12
64388;BME280;50709;52.648;4.764;2023-05-22T06:53:03;101634.78;;;19.89;63.50
64388;BME280;50709;52.648;4.764;2023-05-22T06:55:28;101613.47;;;19.93;62.61
64388;BME280;50709;52.648;4.764;2023-05-22T06:57:53;101646.47;;;19.80;63.40
64388;BME280;50709;52.648;4.764;2023-05-22T07:00:39;101637.63;;;19.79;62.34
64388;BME280;50709;52.648;4.764;2023-05-22T07:03:04;101605.06;;;19.74;62.10
64388;BME280;50709;52.648;4.764;2023-05-22T07:05:30;101623.91;;;19.99;61.78
64388;BME280;50709;52.648;4.764;2023-05-22T07:07:56;101636.00;;;20.11;61.46
64388;BME280;50709;52.648;4.764;2023-05-22T07:10:22;101617.00;;;19.94;61.44
64388;BME280;50709;52.648;4.764;2023-05-22T07:12:50;101635.13;;;20.45;59.95
64388;BME280;50709;52.648;4.764;2023-05-22T07:15:22;101638.69;;;20.10;60.52
64388;BME280;50709;52.648;4.764;2023-05-22T07:17:50;101602.75;;;19.98;60.16
64388;BME280;50709;52.648;4.764;2023-05-22T07:20:16;101628.44;;;20.30;59.68
64388;BME280;50709;52.648;4.764;2023-05-22T07:22:42;101616.97;;;20.30;59.86
64388;BME280;50709;52.648;4.764;2023-05-22T07:25:09;101639.53;;;20.46;59.67
64388;BME280;50709;52.648;4.764;2023-05-22T07:27:37;101647.25;;;20.21;60.62
64388;BME280;50709;52.648;4.764;2023-05-22T07:30:07;101649.28;;;20.11;61.02
64388;BME280;50709;52.648;4.764;2023-05-22T07:32:35;101642.13;;;20.13;61.19
64388;BME280;50709;52.648;4.764;2023-05-22T07:35:00;101634.94;;;20.19;59.66
64388;BME280;50709;52.648;4.764;2023-05-22T07:37:26;101654.13;;;20.28;60.66
64388;BME280;50709;52.648;4.764;2023-05-22T07:39:51;101647.91;;;20.29;60.73
64388;BME280;50709;52.648;4.764;2023-05-22T07:42:17;101638.88;;;20.38;59.62
64388;BME280;50709;52.648;4.764;2023-05-22T07:44:42;101651.09;;;20.77;58.80
64388;BME280;50709;52.648;4.764;2023-05-22T07:47:09;101618.94;;;20.22;59.97
64388;BME280;50709;52.648;4.764;2023-05-22T07:49:38;101653.06;;;20.70;59.15
64388;BME280;50709;52.648;4.764;2023-05-22T07:52:45;101671.84;;;20.62;59.60
64388;BME280;50709;52.648;4.764;2023-05-22T07:55:11;101628.69;;;20.21;60.19
64388;BME280;50709;52.648;4.764;2023-05-22T07:57:56;101660.47;;;20.57;59.11
64388;BME280;50709;52.648;4.764;2023-05-22T08:00:22;101656.31;;;20.47;59.55
64388;BME280;50709;52.648;4.764;2023-05-22T08:02:49;101663.13;;;20.57;59.21
64388;BME280;50709;52.648;4.764;2023-05-22T08:05:14;101654.00;;;20.69;58.61
64388;BME280;50709;52.648;4.764;2023-05-22T08:07:40;101660.03;;;20.74;58.50
64388;BME280;50709;52.648;4.764;2023-05-22T08:10:16;101638.03;;;20.36;59.56
64388;BME280;50709;52.648;4.764;2023-05-22T08:12:42;101664.47;;;20.74;58.56
64388;BME280;50709;52.648;4.764;2023-05-22T08:15:08;101665.69;;;20.95;58.36
64388;BME280;50709;52.648;4.764;2023-05-22T08:17:35;101629.06;;;20.75;58.48
64388;BME280;50709;52.648;4.764;2023-05-22T08:20:00;101656.44;;;20.42;59.74
64388;BME280;50709;52.648;4.764;2023-05-22T08:22:28;101593.53;;;20.47;59.04
64388;BME280;50709;52.648;4.764;2023-05-22T08:25:14;101658.03;;;20.82;58.85
64388;BME280;50709;52.648;4.764;2023-05-22T08:27:40;101666.03;;;20.81;59.67
64388;BME280;50709;52.648;4.764;2023-05-22T08:30:07;101661.38;;;20.56;59.72
64388;BME280;50709;52.648;4.764;2023-05-22T08:32:53;101679.06;;;20.90;59.32
64388;BME280;50709;52.648;4.764;2023-05-22T08:35:19;101667.41;;;21.27;58.41
64388;BME280;50709;52.648;4.764;2023-05-22T08:37:46;101681.28;;;21.37;58.26
64388;BME280;50709;52.648;4.764;2023-05-22T08:40:11;101678.03;;;21.57;57.71
64388;BME280;50709;52.648;4.764;2023-05-22T08:42:38;101672.53;;;21.63;57.36
64388;BME280;50709;52.648;4.764;2023-05-22T08:45:04;101669.72;;;21.96;56.65
64388;BME280;50709;52.648;4.764;2023-05-22T08:47:35;101678.25;;;21.49;58.36
64388;BME280;50709;52.648;4.764;2023-05-22T08:50:02;101676.31;;;21.84;57.13
64388;BME280;50709;52.648;4.764;2023-05-22T08:52:49;101677.81;;;21.93;56.13
64388;BME280;50709;52.648;4.764;2023-05-22T08:55:15;101672.69;;;22.14;55.91
64388;BME280;50709;52.648;4.764;2023-05-22T08:57:44;101674.78;;;22.31;55.38
64388;BME280;50709;52.648;4.764;2023-05-22T09:00:30;101666.59;;;22.10;55.87
64388;BME280;50709;52.648;4.764;2023-05-22T09:02:58;101672.63;;;21.89;56.24
64388;BME280;50709;52.648;4.764;2023-05-22T09:05:30;101674.81;;;22.04;57.01
64388;BME280;50709;52.648;4.764;2023-05-22T09:07:58;101651.84;;;22.01;56.31
64388;BME280;50709;52.648;4.764;2023-05-22T09:10:25;101672.09;;;22.32;55.61
64388;BME280;50709;52.648;4.764;2023-05-22T09:15:28;101652.84;;;22.24;55.76
64388;BME280;50709;52.648;4.764;2023-05-22T09:17:54;101666.78;;;22.06;56.86
64388;BME280;50709;52.648;4.764;2023-05-22T09:20:21;101651.47;;;22.12;55.94
64388;BME280;50709;52.648;4.764;2023-05-22T09:22:47;101648.16;;;22.06;56.83
64388;BME280;50709;52.648;4.764;2023-05-22T09:25:18;101635.66;;;22.08;57.32
64388;BME280;50709;52.648;4.764;2023-05-22T09:27:47;101643.53;;;22.38;55.93
64388;BME280;50709;52.648;4.764;2023-05-22T09:30:19;101656.47;;;21.95;57.13
64388;BME280;50709;52.648;4.764;2023-05-22T09:32:47;101644.66;;;22.04;57.08
64388;BME280;50709;52.648;4.764;2023-05-22T09:35:13;101644.59;;;22.32;55.91
64388;BME280;50709;52.648;4.764;2023-05-22T09:37:58;101644.34;;;22.13;56.02
64388;BME280;50709;52.648;4.764;2023-05-22T09:40:27;101645.56;;;22.29;55.51
64388;BME280;50709;52.648;4.764;2023-05-22T09:42:58;101634.25;;;22.49;54.89
64388;BME280;50709;52.648;4.764;2023-05-22T09:45:26;101650.50;;;22.15;55.26
64388;BME280;50709;52.648;4.764;2023-05-22T09:47:51;101653.16;;;22.67;54.40
64388;BME280;50709;52.648;4.764;2023-05-22T09:50:17;101648.41;;;22.51;54.72
64388;BME280;50709;52.648;4.764;2023-05-22T09:52:44;101639.06;;;22.65;54.14
64388;BME280;50709;52.648;4.764;2023-05-22T09:55:12;101644.47;;;22.62;54.48
64388;BME280;50709;52.648;4.764;2023-05-22T09:57:42;101635.41;;;22.42;54.94
64388;BME280;50709;52.648;4.764;2023-05-22T10:00:11;101632.69;;;22.93;53.83
64388;BME280;50709;52.648;4.764;2023-05-22T10:02:43;101642.63;;;23.13;53.60
64388;BME280;50709;52.648;4.764;2023-05-22T10:05:10;101654.56;;;23.26;53.02
64388;BME280;50709;52.648;4.764;2023-05-22T10:07:45;101649.84;;;22.60;54.28
64388;BME280;50709;52.648;4.764;2023-05-22T10:10:32;101647.19;;;22.60;54.27
64388;BME280;50709;52.648;4.764;2023-05-22T10:13:02;101649.56;;;22.93;53.39
64388;BME280;50709;52.648;4.764;2023-05-22T10:15:29;101643.53;;;23.12;52.68
64388;BME280;50709;52.648;4.764;2023-05-22T10:17:55;101640.88;;;23.13;52.67
64388;BME280;50709;52.648;4.764;2023-05-22T10:20:21;101647.06;;;23.12;53.36
64388;BME280;50709;52.648;4.764;2023-05-22T10:22:47;101640.25;;;23.52;52.58
64388;BME280;50709;52.648;4.764;2023-05-22T10:25:18;101638.38;;;23.55;52.49
64388;BME280;50709;52.648;4.764;2023-05-22T10:27:48;101640.72;;;23.62;52.04
64388;BME280;50709;52.648;4.764;2023-05-22T10:33:29;101631.78;;;22.94;53.04
64388;BME280;50709;52.648;4.764;2023-05-22T10:36:04;101635.75;;;23.75;51.93
64388;BME280;50709;52.648;4.764;2023-05-22T10:41:36;101634.44;;;24.08;51.50
64388;BME280;50709;52.648;4.764;2023-05-22T10:44:02;101631.59;;;23.92;51.43
64388;BME280;50709;52.648;4.764;2023-05-22T10:46:31;101628.19;;;24.09;51.26
64388;BME280;50709;52.648;4.764;2023-05-22T10:48:57;101628.09;;;24.32;50.40
64388;BME280;50709;52.648;4.764;2023-05-22T10:51:23;101619.94;;;24.15;50.44
64388;BME280;50709;52.648;4.764;2023-05-22T10:54:11;101627.03;;;24.16;50.77
64388;BME280;50709;52.648;4.764;2023-05-22T10:56:36;101603.91;;;23.94;50.58
64388;BME280;50709;52.648;4.764;2023-05-22T10:59:03;101619.34;;;24.08;49.65
64388;BME280;50709;52.648;4.764;2023-05-22T11:01:31;101625.81;;;24.23;50.87
64388;BME280;50709;52.648;4.764;2023-05-22T11:04:23;101619.09;;;24.35;50.41
64388;BME280;50709;52.648;4.764;2023-05-22T11:07:09;101631.75;;;24.30;51.18
64388;BME280;50709;52.648;4.764;2023-05-22T11:09:45;101629.16;;;24.49;50.21
64388;BME280;50709;52.648;4.764;2023-05-22T11:12:30;101627.63;;;24.23;51.94
64388;BME280;50709;52.648;4.764;2023-05-22T11:15:15;101620.25;;;24.07;52.21
64388;BME280;50709;52.648;4.764;2023-05-22T11:18:04;101627.06;;;24.14;52.29
64388;BME280;50709;52.648;4.764;2023-05-22T11:20:52;101628.63;;;24.41;51.35
64388;BME280;50709;52.648;4.764;2023-05-22T11:23:37;101622.13;;;24.46;51.12
64388;BME280;50709;52.648;4.764;2023-05-22T11:26:43;101637.00;;;24.52;51.50
64388;BME280;50709;52.648;4.764;2023-05-22T11:29:26;101627.03;;;24.37;52.21
64388;BME280;50709;52.648;4.764;2023-05-22T11:31:56;101629.25;;;24.25;52.27
64388;BME280;50709;52.648;4.764;2023-05-22T11:34:24;101634.81;;;24.21;52.07
64388;BME280;50709;52.648;4.764;2023-05-22T11:36:51;101639.44;;;24.58;52.13
64388;BME280;50709;52.648;4.764;2023-05-22T11:39:38;101632.59;;;24.30;53.61
64388;BME280;50709;52.648;4.764;2023-05-22T11:42:04;101640.81;;;24.46;52.78
64388;BME280;50709;52.648;4.764;2023-05-22T11:44:37;101637.22;;;24.47;53.08
64388;BME280;50709;52.648;4.764;2023-05-22T11:47:06;101594.53;;;24.27;53.36
64388;BME280;50709;52.648;4.764;2023-05-22T11:49:33;101636.31;;;24.48;53.09
64388;BME280;50709;52.648;4.764;2023-05-22T11:51:59;101644.56;;;24.42;54.01
64388;BME280;50709;52.648;4.764;2023-05-22T11:54:30;101641.81;;;24.44;53.65
64388;BME280;50709;52.648;4.764;2023-05-22T11:57:24;101640.34;;;24.78;52.58
64388;BME280;50709;52.648;4.764;2023-05-22T11:59:50;101637.75;;;24.76;52.85
64388;BME280;50709;52.648;4.764;2023-05-22T12:02:48;101642.97;;;24.79;52.47
64388;BME280;50709;52.648;4.764;2023-05-22T12:05:13;101642.25;;;24.76;53.64
64388;BME280;50709;52.648;4.764;2023-05-22T12:07:40;101634.91;;;25.00;51.82
64388;BME280;50709;52.648;4.764;2023-05-22T12:10:06;101639.94;;;24.87;52.38
64388;BME280;50709;52.648;4.764;2023-05-22T12:12:53;101631.25;;;25.02;52.89
64388;BME280;50709;52.648;4.764;2023-05-22T12:15:19;101632.66;;;24.91;53.23
64388;BME280;50709;52.648;4.764;2023-05-22T12:18:07;101647.75;;;24.92;53.04
64388;BME280;50709;52.648;4.764;2023-05-22T12:20:56;101636.00;;;24.96;52.80
64388;BME280;50709;52.648;4.764;2023-05-22T12:25:46;101634.25;;;25.14;52.30
64388;BME280;50709;52.648;4.764;2023-05-22T12:28:19;101647.03;;;25.07;52.90
64388;BME280;50709;52.648;4.764;2023-05-22T12:30:51;101648.88;;;25.26;52.56
64388;BME280;50709;52.648;4.764;2023-05-22T12:33:16;101650.72;;;25.44;51.48
64388;BME280;50709;52.648;4.764;2023-05-22T12:35:44;101648.06;;;25.43;51.13
64388;BME280;50709;52.648;4.764;2023-05-22T12:38:09;101644.88;;;25.53;50.14
64388;BME280;50709;52.648;4.764;2023-05-22T12:40:35;101642.22;;;25.53;49.73
64388;BME280;50709;52.648;4.764;2023-05-22T12:43:00;101653.16;;;25.49;49.13
64388;BME280;50709;52.648;4.764;2023-05-22T12:45:26;101660.81;;;25.57;49.55
64388;BME280;50709;52.648;4.764;2023-05-22T12:47:53;101652.28;;;25.48;50.08
64388;BME280;50709;52.648;4.764;2023-05-22T12:50:18;101648.38;;;25.56;51.00
64388;BME280;50709;52.648;4.764;2023-05-22T12:52:43;101650.88;;;25.59;51.56
64388;BME280;50709;52.648;4.764;2023-05-22T12:55:09;101646.28;;;25.43;51.06
64388;BME280;50709;52.648;4.764;2023-05-22T12:57:35;101662.56;;;25.58;52.20
64388;BME280;50709;52.648;4.764;2023-05-22T13:00:00;101655.09;;;25.64;51.26
64388;BME280;50709;52.648;4.764;2023-05-22T13:02:27;101663.09;;;25.83;49.77
64388;BME280;50709;52.648;4.764;2023-05-22T13:04:52;101652.66;;;25.77;49.56
64388;BME280;50709;52.648;4.764;2023-05-22T13:07:18;101654.63;;;25.74;50.97
64388;BME280;50709;52.648;4.764;2023-05-22T13:09:43;101669.06;;;25.89;50.39
64388;BME280;50709;52.648;4.764;2023-05-22T13:12:09;101660.41;;;25.83;50.79
64388;BME280;50709;52.648;4.764;2023-05-22T13:14:35;101673.63;;;25.86;51.51
64388;BME280;50709;52.648;4.764;2023-05-22T13:17:03;101673.72;;;25.85;51.52
64388;BME280;50709;52.648;4.764;2023-05-22T13:19:28;101676.31;;;25.86;50.55
64388;BME280;50709;52.648;4.764;2023-05-22T13:22:17;101669.56;;;25.97;51.36
64388;BME280;50709;52.648;4.764;2023-05-22T13:24:43;101674.09;;;26.14;50.68